createdAt,value
2023-04-30T11:09:41.209Z,101763.72
2023-04-30T11:12:14.507Z,101757.78
2023-04-30T11:14:44.794Z,101762.84
2023-04-30T11:17:14.763Z,101758.22
2023-04-30T11:19:49.863Z,101756.59
2023-04-30T11:22:19.665Z,101743.25
2023-04-30T11:25:06.431Z,101744.34
2023-04-30T11:27:35.697Z,101740.72
2023-04-30T11:30:05.336Z,101741.13
2023-04-30T11:32:35.252Z,101738.06
2023-04-30T11:35:04.208Z,101739.63
2023-04-30T11:37:33.850Z,101739.59
2023-04-30T11:40:05.889Z,101725.72
2023-04-30T11:42:35.543Z,101743.09
2023-04-30T11:45:09.376Z,101741.13
2023-04-30T11:47:41.544Z,101736.19
2023-04-30T11:50:10.830Z,101739.34
2023-04-30T11:52:39.027Z,101734.00
2023-04-30T11:55:09.737Z,101726.91
2023-04-30T11:57:41.872Z,101732.28
2023-04-30T12:00:13.350Z,101723.47
2023-04-30T12:02:42.015Z,101723.47
2023-04-30T12:05:15.574Z,101716.91
2023-04-30T12:07:47.568Z,101716.75
2023-04-30T12:10:17.419Z,101712.94
2023-04-30T12:12:45.868Z,101711.59
2023-04-30T12:15:15.972Z,101708.13
2023-04-30T12:17:44.548Z,101696.00
2023-04-30T12:20:14.483Z,101692.69
2023-04-30T12:22:43.124Z,101696.00
2023-04-30T12:25:14.803Z,101699.13
2023-04-30T12:27:47.923Z,101703.81
2023-04-30T12:30:16.287Z,101708.50
2023-04-30T12:32:46.063Z,101696.19
2023-04-30T12:35:18.885Z,101690.63
2023-04-30T12:37:48.468Z,101681.59
2023-04-30T12:40:16.386Z,101686.47
2023-04-30T12:42:46.986Z,101692.53
2023-04-30T12:45:35.244Z,101681.59
2023-04-30T12:48:03.260Z,101682.47
2023-04-30T12:50:31.139Z,101678.50
2023-04-30T12:53:04.470Z,101686.69
2023-04-30T12:55:32.567Z,101677.63
2023-04-30T12:58:12.563Z,101682.16
2023-04-30T13:00:49.353Z,101681.44
2023-04-30T13:03:21.185Z,101678.13
2023-04-30T13:05:50.857Z,101667.56
2023-04-30T13:08:19.591Z,101670.16
2023-04-30T13:10:48.514Z,101658.03
2023-04-30T13:13:20.216Z,101658.03
2023-04-30T13:15:48.714Z,101664.78
2023-04-30T13:18:16.831Z,101661.84
2023-04-30T13:20:45.026Z,101663.91
2023-04-30T13:23:13.074Z,101646.22
2023-04-30T13:25:42.064Z,101656.28
2023-04-30T13:28:10.065Z,101653.53
2023-04-30T13:30:44.300Z,101642.75
2023-04-30T13:33:12.751Z,101650.22
2023-04-30T13:35:40.634Z,101647.28
2023-04-30T13:38:08.545Z,101644.16
2023-04-30T13:40:36.330Z,101634.09
2023-04-30T13:43:04.321Z,101645.38
2023-04-30T13:45:32.142Z,101642.59
2023-04-30T13:48:01.473Z,101631.50
2023-04-30T13:50:29.816Z,101629.25
2023-04-30T13:52:59.340Z,101620.22
2023-04-30T13:55:27.263Z,101615.72
2023-04-30T13:57:55.385Z,101617.78
2023-04-30T14:00:23.393Z,101621.44
2023-04-30T14:02:51.368Z,101611.19
2023-04-30T14:05:20.629Z,101615.88
2023-04-30T14:07:48.535Z,101610.00
2023-04-30T14:10:16.295Z,101608.25
2023-04-30T14:12:44.101Z,101602.88
2023-04-30T14:15:12.468Z,101601.84
2023-04-30T14:17:40.299Z,101597.47
2023-04-30T14:20:09.233Z,101595.75
2023-04-30T14:22:39.277Z,101597.47
2023-04-30T14:25:09.240Z,101593.84
2023-04-30T14:27:37.447Z,101590.38
2023-04-30T14:30:06.278Z,101584.81
2023-04-30T14:32:34.239Z,101580.66
2023-04-30T14:35:02.600Z,101575.13
2023-04-30T14:37:30.493Z,101571.47
2023-04-30T14:40:01.876Z,101578.94
2023-04-30T14:42:29.692Z,101573.91
2023-04-30T14:44:57.504Z,101566.47
2023-04-30T14:47:27.371Z,101563.84
2023-04-30T14:49:55.877Z,101555.53
2023-04-30T14:52:23.865Z,101568.53
2023-04-30T14:54:51.835Z,101572.34
2023-04-30T14:57:21.176Z,101562.97
2023-04-30T14:59:49.027Z,101560.53
2023-04-30T15:02:16.952Z,101558.63
2023-04-30T15:04:46.065Z,101544.94
2023-04-30T15:07:14.080Z,101548.94
2023-04-30T15:09:41.854Z,101552.59
2023-04-30T15:12:09.646Z,101539.91
2023-04-30T15:14:38.790Z,101538.00
2023-04-30T15:17:06.804Z,101542.84
2023-04-30T15:19:34.676Z,101540.25
2023-04-30T15:22:02.648Z,101540.41
2023-04-30T15:24:30.743Z,101537.63
2023-04-30T15:26:58.676Z,101532.47
2023-04-30T15:29:26.647Z,101533.81
2023-04-30T15:31:56.502Z,101531.59
2023-04-30T15:34:24.553Z,101527.41
2023-04-30T15:36:52.648Z,101525.00
2023-04-30T15:39:21.723Z,101515.81
2023-04-30T15:41:49.604Z,101517.00
2023-04-30T15:44:17.540Z,101521.84
2023-04-30T15:46:45.458Z,101522.88
2023-04-30T15:49:15.816Z,101516.84
2023-04-30T15:51:49.150Z,101521.69
2023-04-30T15:54:17.913Z,101510.22
2023-04-30T15:56:45.808Z,101513.31
2023-04-30T15:59:17.576Z,101510.03
2023-04-30T16:01:47.247Z,101512.97
2023-04-30T16:04:16.572Z,101511.38
2023-04-30T16:06:44.483Z,101498.94
2023-04-30T16:09:13.491Z,101499.97
2023-04-30T16:11:41.448Z,101495.78
2023-04-30T16:14:09.366Z,101492.31
2023-04-30T16:16:37.293Z,101496.13
2023-04-30T16:19:07.640Z,101499.41
2023-04-30T16:21:38.540Z,101495.06
2023-04-30T16:24:07.052Z,101485.03
2023-04-30T16:26:36.129Z,101494.53
2023-04-30T16:29:05.054Z,101487.25
2023-04-30T16:31:33.094Z,101485.00
2023-04-30T16:34:01.090Z,101487.59
2023-04-30T16:36:29.151Z,101477.53
2023-04-30T16:38:58.436Z,101482.75
2023-04-30T16:41:26.499Z,101480.31
2023-04-30T16:43:54.411Z,101480.31
2023-04-30T16:46:22.317Z,101486.19
2023-04-30T16:48:50.346Z,101479.09
2023-04-30T16:51:18.106Z,101473.72
2023-04-30T16:53:45.901Z,101479.59
2023-04-30T16:56:15.080Z,101473.19
2023-04-30T16:58:42.998Z,101481.13
2023-04-30T17:01:11.610Z,101472.13
2023-04-30T17:03:39.690Z,101479.91
2023-04-30T17:06:08.213Z,101476.59
2023-04-30T17:08:36.084Z,101471.56
2023-04-30T17:11:03.934Z,101472.75
2023-04-30T17:13:33.230Z,101469.13
2023-04-30T17:16:02.196Z,101465.25
2023-04-30T17:18:30.338Z,101457.44
2023-04-30T17:20:58.201Z,101458.47
2023-04-30T17:23:26.237Z,101455.34
2023-04-30T17:25:54.078Z,101457.56
2023-04-30T17:28:22.048Z,101447.69
2023-04-30T17:30:51.610Z,101455.13
2023-04-30T17:33:19.535Z,101460.31
2023-04-30T17:35:47.364Z,101450.59
2023-04-30T17:38:15.674Z,101453.69
2023-04-30T17:40:43.467Z,101453.00
2023-04-30T17:43:11.443Z,101455.19
2023-04-30T17:45:39.222Z,101461.25
2023-04-30T17:48:08.482Z,101452.22
2023-04-30T17:50:37.075Z,101452.88
2023-04-30T17:53:04.959Z,101449.41
2023-04-30T17:55:32.771Z,101449.56
2023-04-30T17:58:00.689Z,101451.81
2023-04-30T18:00:28.466Z,101451.09
2023-04-30T18:02:56.355Z,101447.97
2023-04-30T18:05:25.584Z,101448.84
2023-04-30T18:07:53.424Z,101445.66
2023-04-30T18:10:21.287Z,101443.06
2023-04-30T18:12:50.327Z,101439.47
2023-04-30T18:15:18.180Z,101438.72
2023-04-30T18:17:46.064Z,101445.25
2023-04-30T18:20:13.968Z,101444.56
2023-04-30T18:22:43.736Z,101445.44
2023-04-30T18:25:13.014Z,101446.59
2023-04-30T18:27:41.773Z,101441.41
2023-04-30T18:30:11.489Z,101444.34
2023-04-30T18:32:39.696Z,101442.75
2023-04-30T18:35:08.264Z,101445.88
2023-04-30T18:37:36.116Z,101440.63
2023-04-30T18:40:05.935Z,101450.84
2023-04-30T18:42:34.725Z,101444.06
2023-04-30T18:45:02.558Z,101451.78
2023-04-30T18:47:30.878Z,101445.53
2023-04-30T18:49:58.816Z,101439.50
2023-04-30T18:52:26.896Z,101437.91
2023-04-30T18:54:55.355Z,101445.47
2023-04-30T18:57:24.700Z,101441.00
2023-04-30T18:59:52.854Z,101442.34
2023-04-30T19:02:21.840Z,101437.97
2023-04-30T19:04:50.435Z,101436.44
2023-04-30T19:07:18.540Z,101434.69
2023-04-30T19:09:48.404Z,101442.25
2023-04-30T19:12:16.339Z,101442.41
2023-04-30T19:14:45.800Z,101444.31
2023-04-30T19:17:14.249Z,101441.00
2023-04-30T19:19:43.752Z,101451.19
2023-04-30T19:22:11.717Z,101447.00
2023-04-30T19:24:39.505Z,101445.25
2023-04-30T19:27:07.451Z,101453.72
2023-04-30T19:29:35.357Z,101444.88
2023-04-30T19:32:04.861Z,101454.03
2023-04-30T19:34:32.930Z,101451.72
2023-04-30T19:37:00.801Z,101461.22
2023-04-30T19:39:31.392Z,101460.34
2023-04-30T19:41:59.284Z,101459.06
2023-04-30T19:44:29.179Z,101470.25
2023-04-30T19:46:57.724Z,101465.03
2023-04-30T19:49:27.173Z,101460.38
2023-04-30T19:51:55.657Z,101461.88
2023-04-30T19:54:23.605Z,101466.69
2023-04-30T19:56:54.617Z,101463.19
2023-04-30T19:59:22.832Z,101462.47
2023-04-30T20:01:52.681Z,101459.91
2023-04-30T20:04:23.438Z,101450.88
2023-04-30T20:06:56.932Z,101457.28
2023-04-30T20:09:26.046Z,101456.84
2023-04-30T20:11:55.379Z,101455.28
2023-04-30T20:14:23.899Z,101460.25
2023-04-30T20:16:54.192Z,101456.75
2023-04-30T20:19:22.672Z,101452.59
2023-04-30T20:21:53.959Z,101458.25
2023-04-30T20:24:22.676Z,101452.63
2023-04-30T20:26:50.611Z,101445.72
2023-04-30T20:29:20.556Z,101448.91
2023-04-30T20:31:48.502Z,101448.38
2023-04-30T20:34:16.384Z,101454.31
2023-04-30T20:36:44.810Z,101443.56
2023-04-30T20:39:14.593Z,101448.53
2023-04-30T20:41:43.550Z,101440.72
2023-04-30T20:44:11.450Z,101447.56
2023-04-30T20:46:39.531Z,101448.88
2023-04-30T20:49:07.453Z,101444.53
2023-04-30T20:51:36.431Z,101433.78
2023-04-30T20:54:04.431Z,101441.50
2023-04-30T20:56:33.675Z,101446.16
2023-04-30T20:59:01.753Z,101441.94
2023-04-30T21:01:29.722Z,101440.34
2023-04-30T21:03:57.564Z,101442.41
2023-04-30T21:06:25.686Z,101434.41
2023-04-30T21:08:53.491Z,101429.19
2023-04-30T21:11:21.260Z,101431.94
2023-04-30T21:13:51.370Z,101432.81
2023-04-30T21:16:19.791Z,101432.13
2023-04-30T21:18:48.756Z,101425.75
2023-04-30T21:21:16.929Z,101425.75
2023-04-30T21:23:46.676Z,101414.84
2023-04-30T21:26:16.544Z,101420.50
2023-04-30T21:28:44.348Z,101420.50
2023-04-30T21:31:13.695Z,101420.50
2023-04-30T21:33:41.846Z,101417.91
2023-04-30T21:36:09.758Z,101411.66
2023-04-30T21:38:37.863Z,101414.75
2023-04-30T21:41:05.807Z,101416.78
2023-04-30T21:43:33.596Z,101414.16
2023-04-30T21:46:03.904Z,101411.41
2023-04-30T21:48:34.190Z,101408.78
2023-04-30T21:51:02.220Z,101411.00
2023-04-30T21:53:30.031Z,101404.75
2023-04-30T21:55:57.916Z,101407.50
2023-04-30T21:58:26.093Z,101400.25
2023-04-30T22:03:59.819Z,101402.28
2023-04-30T22:06:37.324Z,101401.44
2023-04-30T22:09:08.620Z,101388.97
2023-04-30T22:11:40.525Z,101390.13
2023-04-30T22:14:20.368Z,101383.47
2023-04-30T22:16:52.835Z,101388.09
2023-04-30T22:19:30.449Z,101385.19
2023-04-30T22:25:01.264Z,101383.75
2023-04-30T22:27:42.700Z,101378.22
2023-04-30T22:30:15.931Z,101380.13
2023-04-30T22:32:44.534Z,101380.13
2023-04-30T22:35:17.255Z,101376.19
2023-04-30T22:37:45.992Z,101376.44
2023-04-30T22:40:14.291Z,101377.97
2023-04-30T22:42:43.556Z,101376.81
2023-04-30T22:45:12.061Z,101379.72
2023-04-30T22:47:41.670Z,101372.47
2023-04-30T22:50:11.261Z,101372.47
2023-04-30T22:52:40.957Z,101372.78
2023-04-30T22:55:09.668Z,101368.41
2023-04-30T22:57:37.650Z,101370.44
2023-04-30T23:00:06.224Z,101369.56
2023-04-30T23:02:34.119Z,101377.84
2023-04-30T23:05:03.135Z,101372.47
2023-04-30T23:07:32.138Z,101367.84
2023-04-30T23:10:01.811Z,101370.59
2023-04-30T23:12:30.075Z,101367.97
2023-04-30T23:14:57.983Z,101367.97
2023-04-30T23:17:27.061Z,101367.13
2023-04-30T23:19:55.123Z,101368.16
2023-04-30T23:22:23.156Z,101366.41
2023-04-30T23:24:52.634Z,101361.78
2023-04-30T23:27:28.238Z,101365.69
2023-04-30T23:29:57.686Z,101367.84
2023-04-30T23:32:27.434Z,101364.94
2023-04-30T23:34:58.354Z,101362.50
2023-04-30T23:37:26.398Z,101359.75
2023-04-30T23:39:54.945Z,101363.53
2023-04-30T23:42:24.532Z,101353.38
2023-04-30T23:44:52.418Z,101352.91
2023-04-30T23:47:20.878Z,101346.69
2023-04-30T23:49:48.822Z,101344.09
2023-04-30T23:52:16.702Z,101344.22
2023-04-30T23:54:44.619Z,101332.47
2023-04-30T23:57:12.712Z,101336.25
2023-04-30T23:59:42.631Z,101335.56
